PWSweather.com
Personal Weather Stations
Station Observations
719732
Ponferrada, PonferradaES 24411

PonferradaPonferradaES 24411

Lat: 42.5728, Lon: -6.6425

Elevation: 1676

Station Type: PCE-FWS 20 con garita Ambient Weather SRS100LX

www.meteo.spyfly.es

High Low Average
Temperature 92.1°F33.4°C 58.1°F14.5°C 74.8°F23.8°C
Dew Point 66.5°F19.2°C 54.2°F12.3°C 61.2°F16.2°C
Winds 20.6 mph 33.2 kmh Calm Calm 3.0 mph SW4.8 kmh SW
Wind Gusts 25.9 mph41.7 kmh -- 6.0 mph9.7 kmh
Humidity 99% 30% 68%
Pressure 29.98 in1015.2 mb 29.85 in1010.8 mb -
Precipitation 0.56 in14.2 mm - -
Hour Temp Dew Point Humidity Winds Wind Gusts Pressure Precip Precip Rate Daily Precip Total
12:00 AM 69.1°F20.6°C 61.2°F16.2°C 76% 1.6 mph W2.6 kmh W 3.8 mph6.1 kmh 29.96 in1014.6 mb 0.00 in0.0 mm 0.00 in0.0 mm 0.00 in0.0 mm
12:05 AM 68.7°F20.4°C 60.9°F16.1°C 76% 4.5 mph NW7.2 kmh NW 6.0 mph9.7 kmh 29.97 in1014.9 mb 0.00 in0.0 mm 0.00 in0.0 mm 0.00 in0.0 mm
12:10 AM 68.7°F20.4°C 60.9°F16.1°C 76% 0.7 mph SE1.1 kmh SE 6.0 mph9.7 kmh 29.96 in1014.6 mb 0.00 in0.0 mm 0.00 in0.0 mm 0.00 in0.0 mm
12:15 AM 68.5°F20.3°C 60.7°F15.9°C 76% 1.6 mph SE2.6 kmh SE 6.0 mph9.7 kmh 29.96 in1014.6 mb 0.00 in0.0 mm 0.00 in0.0 mm 0.00 in0.0 mm
12:20 AM 68.5°F20.3°C 61.1°F16.2°C 77% 2.2 mph S3.5 kmh S 5.4 mph8.7 kmh 29.96 in1014.6 mb 0.00 in0.0 mm 0.00 in0.0 mm 0.00 in0.0 mm
12:25 AM 68.5°F20.3°C 60.7°F15.9°C 76% 3.1 mph SSW5.0 kmh SSW 5.4 mph8.7 kmh 29.96 in1014.6 mb 0.00 in0.0 mm 0.00 in0.0 mm 0.00 in0.0 mm
12:30 AM 68.5°F20.3°C 60.7°F15.9°C 76% 2.2 mph S3.5 kmh S 5.4 mph8.7 kmh 29.96 in1014.6 mb 0.00 in0.0 mm 0.00 in0.0 mm 0.00 in0.0 mm
12:35 AM 68.5°F20.3°C 60.7°F15.9°C 76% 0.7 mph S1.1 kmh S 4.5 mph7.2 kmh 29.96 in1014.6 mb 0.00 in0.0 mm 0.00 in0.0 mm 0.00 in0.0 mm
12:40 AM 68.4°F20.2°C 60.5°F15.8°C 76% Calm Calm 3.8 mph6.1 kmh 29.96 in1014.6 mb 0.00 in0.0 mm 0.00 in0.0 mm 0.00 in0.0 mm
12:45 AM 68.2°F20.1°C 60.4°F15.8°C 76% 1.6 mph SSW2.6 kmh SSW 3.8 mph6.1 kmh 29.96 in1014.6 mb 0.00 in0.0 mm 0.00 in0.0 mm 0.00 in0.0 mm
12:50 AM 68.0°F20.0°C 60.5°F15.8°C 77% 0.7 mph SSW1.1 kmh SSW 3.8 mph6.1 kmh 29.95 in1014.2 mb 0.00 in0.0 mm 0.00 in0.0 mm 0.00 in0.0 mm
12:55 AM 67.6°F19.8°C 60.6°F15.9°C 78% 3.1 mph SW5.0 kmh SW 4.5 mph7.2 kmh 29.95 in1014.2 mb 0.00 in0.0 mm 0.00 in0.0 mm 0.00 in0.0 mm
01:00 AM 67.6°F19.8°C 60.6°F15.9°C 78% 0.7 mph S1.1 kmh S 5.4 mph8.7 kmh 29.96 in1014.6 mb 0.00 in0.0 mm 0.00 in0.0 mm 0.00 in0.0 mm
01:05 AM 67.6°F19.8°C 60.6°F15.9°C 78% 0.7 mph SSE1.1 kmh SSE 5.4 mph8.7 kmh 29.96 in1014.6 mb 0.00 in0.0 mm 0.00 in0.0 mm 0.00 in0.0 mm
01:10 AM 67.1°F19.5°C 60.4°F15.8°C 79% 2.2 mph SE3.5 kmh SE 4.5 mph7.2 kmh 29.96 in1014.6 mb 0.00 in0.0 mm 0.00 in0.0 mm 0.00 in0.0 mm
01:15 AM 67.1°F19.5°C 60.7°F15.9°C 80% 3.1 mph S5.0 kmh S 4.5 mph7.2 kmh 29.96 in1014.6 mb 0.00 in0.0 mm 0.00 in0.0 mm 0.00 in0.0 mm
01:20 AM 66.9°F19.4°C 60.6°F15.9°C 80% 2.2 mph S3.5 kmh S 3.8 mph6.1 kmh 29.96 in1014.6 mb 0.00 in0.0 mm 0.00 in0.0 mm 0.00 in0.0 mm
01:25 AM 66.7°F19.3°C 60.4°F15.8°C 80% 3.1 mph S5.0 kmh S 4.5 mph7.2 kmh 29.96 in1014.6 mb 0.00 in0.0 mm 0.00 in0.0 mm 0.00 in0.0 mm
01:30 AM 66.6°F19.2°C 60.6°F15.9°C 81% 1.6 mph S2.6 kmh S 4.5 mph7.2 kmh 29.96 in1014.6 mb 0.00 in0.0 mm 0.00 in0.0 mm 0.00 in0.0 mm
01:35 AM 66.4°F19.1°C 60.4°F15.8°C 81% 0.7 mph S1.1 kmh S 3.8 mph6.1 kmh 29.96 in1014.6 mb 0.00 in0.0 mm 0.00 in0.0 mm 0.00 in0.0 mm
01:40 AM 66.2°F19.0°C 60.2°F15.7°C 81% 0.7 mph SE1.1 kmh SE 3.1 mph5.0 kmh 29.95 in1014.2 mb 0.00 in0.0 mm 0.00 in0.0 mm 0.00 in0.0 mm
01:45 AM 65.8°F18.8°C 60.9°F16.1°C 84% 0.7 mph ENE1.1 kmh ENE 1.6 mph2.6 kmh 29.96 in1014.6 mb 0.00 in0.0 mm 0.00 in0.0 mm 0.00 in0.0 mm
01:50 AM 65.3°F18.5°C 60.7°F15.9°C 85% 0.7 mph WNW1.1 kmh WNW 2.2 mph3.5 kmh 29.95 in1014.2 mb 0.00 in0.0 mm 0.00 in0.0 mm 0.00 in0.0 mm
01:55 AM 64.8°F18.2°C 60.2°F15.7°C 85% Calm Calm 3.1 mph5.0 kmh 29.95 in1014.2 mb 0.00 in0.0 mm 0.00 in0.0 mm 0.00 in0.0 mm
02:00 AM 64.4°F18.0°C 60.1°F15.6°C 86% Calm Calm 3.1 mph5.0 kmh 29.96 in1014.6 mb 0.00 in0.0 mm 0.00 in0.0 mm 0.00 in0.0 mm
02:05 AM 64.2°F17.9°C 59.6°F15.3°C 85% 1.6 mph E2.6 kmh E 3.1 mph5.0 kmh 29.95 in1014.2 mb 0.00 in0.0 mm 0.00 in0.0 mm 0.00 in0.0 mm
02:10 AM 64.0°F17.8°C 59.8°F15.4°C 86% 0.7 mph ESE1.1 kmh ESE 3.1 mph5.0 kmh 29.95 in1014.2 mb 0.00 in0.0 mm 0.00 in0.0 mm 0.00 in0.0 mm
02:15 AM 63.9°F17.7°C 59.6°F15.3°C 86% 0.7 mph S1.1 kmh S 3.1 mph5.0 kmh 29.95 in1014.2 mb 0.00 in0.0 mm 0.00 in0.0 mm 0.00 in0.0 mm
02:20 AM 63.9°F17.7°C 59.6°F15.3°C 86% 1.6 mph NE2.6 kmh NE 3.1 mph5.0 kmh 29.95 in1014.2 mb 0.00 in0.0 mm 0.00 in0.0 mm 0.00 in0.0 mm
02:25 AM 63.9°F17.7°C 59.6°F15.3°C 86% 0.7 mph ENE1.1 kmh ENE 2.2 mph3.5 kmh 29.95 in1014.2 mb 0.00 in0.0 mm 0.00 in0.0 mm 0.00 in0.0 mm
02:30 AM 63.5°F17.5°C 59.6°F15.3°C 87% 1.6 mph E2.6 kmh E 2.2 mph3.5 kmh 29.95 in1014.2 mb 0.00 in0.0 mm 0.00 in0.0 mm 0.00 in0.0 mm
02:35 AM 63.3°F17.4°C 59.4°F15.2°C 87% 0.7 mph E1.1 kmh E 2.2 mph3.5 kmh 29.95 in1014.2 mb 0.00 in0.0 mm 0.00 in0.0 mm 0.00 in0.0 mm
02:40 AM 63.1°F17.3°C 59.2°F15.1°C 87% 1.6 mph ENE2.6 kmh ENE 2.2 mph3.5 kmh 29.95 in1014.2 mb 0.00 in0.0 mm 0.00 in0.0 mm 0.00 in0.0 mm
02:50 AM 62.4°F16.9°C 59.5°F15.3°C 90% 0.7 mph N1.1 kmh N 2.2 mph3.5 kmh 29.94 in1013.9 mb 0.00 in0.0 mm 0.00 in0.0 mm 0.00 in0.0 mm
02:55 AM 62.1°F16.7°C 59.1°F15.1°C 90% 0.7 mph NNW1.1 kmh NNW 2.2 mph3.5 kmh 29.94 in1013.9 mb 0.00 in0.0 mm 0.00 in0.0 mm 0.00 in0.0 mm
03:00 AM 61.7°F16.5°C 59.1°F15.1°C 91% Calm Calm 2.2 mph3.5 kmh 29.94 in1013.9 mb 0.00 in0.0 mm 0.00 in0.0 mm 0.00 in0.0 mm
03:05 AM 61.7°F16.5°C 59.1°F15.1°C 91% Calm Calm 1.6 mph2.6 kmh 29.94 in1013.9 mb 0.00 in0.0 mm 0.00 in0.0 mm 0.00 in0.0 mm
03:10 AM 61.3°F16.3°C 59.0°F15.0°C 92% Calm Calm -- 29.94 in1013.9 mb 0.00 in0.0 mm 0.00 in0.0 mm 0.00 in0.0 mm
03:15 AM 61.2°F16.2°C 59.1°F15.1°C 93% Calm Calm -- 29.94 in1013.9 mb 0.00 in0.0 mm 0.00 in0.0 mm 0.00 in0.0 mm
03:20 AM 61.0°F16.1°C 59.0°F15.0°C 93% Calm Calm -- 29.94 in1013.9 mb 0.00 in0.0 mm 0.00 in0.0 mm 0.00 in0.0 mm
03:25 AM 60.8°F16.0°C 59.1°F15.1°C 94% 0.7 mph N1.1 kmh N 2.2 mph3.5 kmh 29.94 in1013.9 mb 0.00 in0.0 mm 0.00 in0.0 mm 0.00 in0.0 mm
03:30 AM 60.8°F16.0°C 59.1°F15.1°C 94% 0.7 mph N1.1 kmh N 2.2 mph3.5 kmh 29.94 in1013.9 mb 0.00 in0.0 mm 0.00 in0.0 mm 0.00 in0.0 mm
03:35 AM 60.6°F15.9°C 59.2°F15.1°C 95% 0.7 mph E1.1 kmh E 2.2 mph3.5 kmh 29.94 in1013.9 mb 0.00 in0.0 mm 0.00 in0.0 mm 0.00 in0.0 mm
03:40 AM 61.0°F16.1°C 59.6°F15.3°C 95% 1.6 mph ESE2.6 kmh ESE 2.2 mph3.5 kmh 29.94 in1013.9 mb 0.00 in0.0 mm 0.00 in0.0 mm 0.00 in0.0 mm
03:45 AM 61.2°F16.2°C 59.7°F15.4°C 95% 0.7 mph E1.1 kmh E 2.2 mph3.5 kmh 29.94 in1013.9 mb 0.00 in0.0 mm 0.00 in0.0 mm 0.00 in0.0 mm
03:50 AM 61.2°F16.2°C 59.7°F15.4°C 95% Calm Calm 2.2 mph3.5 kmh 29.94 in1013.9 mb 0.00 in0.0 mm 0.00 in0.0 mm 0.00 in0.0 mm
03:55 AM 61.0°F16.1°C 59.3°F15.2°C 94% Calm Calm 1.6 mph2.6 kmh 29.93 in1013.5 mb 0.00 in0.0 mm 0.00 in0.0 mm 0.00 in0.0 mm
04:00 AM 60.8°F16.0°C 59.1°F15.1°C 94% Calm Calm 1.6 mph2.6 kmh 29.94 in1013.9 mb 0.00 in0.0 mm 0.00 in0.0 mm 0.00 in0.0 mm
04:05 AM 60.6°F15.9°C 59.2°F15.1°C 95% 0.7 mph NNW1.1 kmh NNW 1.6 mph2.6 kmh 29.94 in1013.9 mb 0.00 in0.0 mm 0.00 in0.0 mm 0.00 in0.0 mm
04:10 AM 60.4°F15.8°C 59.0°F15.0°C 95% Calm Calm 1.6 mph2.6 kmh 29.93 in1013.5 mb 0.00 in0.0 mm 0.00 in0.0 mm 0.00 in0.0 mm
04:15 AM 60.3°F15.7°C 59.1°F15.1°C 96% 0.7 mph NW1.1 kmh NW 1.6 mph2.6 kmh 29.93 in1013.5 mb 0.00 in0.0 mm 0.00 in0.0 mm 0.00 in0.0 mm
04:20 AM 60.1°F15.6°C 59.0°F15.0°C 96% 0.7 mph NW1.1 kmh NW 1.6 mph2.6 kmh 29.94 in1013.9 mb 0.00 in0.0 mm 0.00 in0.0 mm 0.00 in0.0 mm
04:25 AM 59.9°F15.5°C 58.8°F14.9°C 96% 1.6 mph NNW2.6 kmh NNW 2.2 mph3.5 kmh 29.93 in1013.5 mb 0.00 in0.0 mm 0.00 in0.0 mm 0.00 in0.0 mm
04:30 AM 59.9°F15.5°C 58.8°F14.9°C 96% 0.7 mph NE1.1 kmh NE 2.2 mph3.5 kmh 29.93 in1013.5 mb 0.00 in0.0 mm 0.00 in0.0 mm 0.00 in0.0 mm
04:35 AM 59.7°F15.4°C 58.9°F14.9°C 97% Calm Calm 2.2 mph3.5 kmh 29.93 in1013.5 mb 0.00 in0.0 mm 0.00 in0.0 mm 0.00 in0.0 mm
04:40 AM 59.7°F15.4°C 58.9°F14.9°C 97% 0.7 mph N1.1 kmh N 2.2 mph3.5 kmh 29.93 in1013.5 mb 0.00 in0.0 mm 0.00 in0.0 mm 0.00 in0.0 mm
04:45 AM 59.5°F15.3°C 58.7°F14.8°C 97% 1.6 mph NE2.6 kmh NE 2.2 mph3.5 kmh 29.93 in1013.5 mb 0.00 in0.0 mm 0.00 in0.0 mm 0.00 in0.0 mm
04:50 AM 59.7°F15.4°C 58.9°F14.9°C 97% 0.7 mph ESE1.1 kmh ESE 2.2 mph3.5 kmh 29.93 in1013.5 mb 0.00 in0.0 mm 0.00 in0.0 mm 0.00 in0.0 mm
04:55 AM 59.7°F15.4°C 59.2°F15.1°C 98% Calm Calm 2.2 mph3.5 kmh 29.93 in1013.5 mb 0.00 in0.0 mm 0.00 in0.0 mm 0.00 in0.0 mm
05:00 AM 59.5°F15.3°C 59.0°F15.0°C 98% 0.7 mph NE1.1 kmh NE 1.6 mph2.6 kmh 29.93 in1013.5 mb 0.00 in0.0 mm 0.00 in0.0 mm 0.00 in0.0 mm
05:05 AM 59.5°F15.3°C 59.0°F15.0°C 98% Calm Calm 1.6 mph2.6 kmh 29.93 in1013.5 mb 0.00 in0.0 mm 0.00 in0.0 mm 0.00 in0.0 mm
05:10 AM 59.4°F15.2°C 58.5°F14.7°C 97% 0.7 mph N1.1 kmh N 2.2 mph3.5 kmh 29.93 in1013.5 mb 0.00 in0.0 mm 0.00 in0.0 mm 0.00 in0.0 mm
05:15 AM 59.2°F15.1°C 58.3°F14.6°C 97% 1.6 mph NNW2.6 kmh NNW 2.2 mph3.5 kmh 29.94 in1013.9 mb 0.00 in0.0 mm 0.00 in0.0 mm 0.00 in0.0 mm
05:20 AM 58.8°F14.9°C 58.6°F14.8°C 99% Calm Calm 2.2 mph3.5 kmh 29.93 in1013.5 mb 0.00 in0.0 mm 0.00 in0.0 mm 0.00 in0.0 mm
05:25 AM 58.6°F14.8°C 58.4°F14.7°C 99% Calm Calm 1.6 mph2.6 kmh 29.93 in1013.5 mb 0.00 in0.0 mm 0.00 in0.0 mm 0.00 in0.0 mm
05:30 AM 58.5°F14.7°C 58.2°F14.6°C 99% 0.7 mph NW1.1 kmh NW 1.6 mph2.6 kmh 29.93 in1013.5 mb 0.00 in0.0 mm 0.00 in0.0 mm 0.00 in0.0 mm
05:35 AM 58.5°F14.7°C 58.2°F14.6°C 99% Calm Calm 1.6 mph2.6 kmh 29.93 in1013.5 mb 0.00 in0.0 mm 0.00 in0.0 mm 0.00 in0.0 mm
05:40 AM 58.5°F14.7°C 58.2°F14.6°C 99% 0.7 mph N1.1 kmh N 1.6 mph2.6 kmh 29.93 in1013.5 mb 0.00 in0.0 mm 0.00 in0.0 mm 0.00 in0.0 mm
05:45 AM 58.5°F14.7°C 58.2°F14.6°C 99% 0.7 mph N1.1 kmh N 1.6 mph2.6 kmh 29.93 in1013.5 mb 0.00 in0.0 mm 0.00 in0.0 mm 0.00 in0.0 mm
05:50 AM 58.3°F14.6°C 58.0°F14.4°C 99% 0.7 mph N1.1 kmh N 1.6 mph2.6 kmh 29.94 in1013.9 mb 0.00 in0.0 mm 0.00 in0.0 mm 0.00 in0.0 mm
05:55 AM 58.3°F14.6°C 58.0°F14.4°C 99% 2.2 mph ENE3.5 kmh ENE 3.1 mph5.0 kmh 29.93 in1013.5 mb 0.00 in0.0 mm 0.00 in0.0 mm 0.00 in0.0 mm
06:00 AM 58.5°F14.7°C 58.2°F14.6°C 99% Calm Calm 3.1 mph5.0 kmh 29.94 in1013.9 mb 0.00 in0.0 mm 0.00 in0.0 mm 0.00 in0.0 mm
06:05 AM 58.5°F14.7°C 58.2°F14.6°C 99% 0.7 mph NNE1.1 kmh NNE 3.1 mph5.0 kmh 29.94 in1013.9 mb 0.00 in0.0 mm 0.00 in0.0 mm 0.00 in0.0 mm
06:10 AM 58.5°F14.7°C 58.2°F14.6°C 99% Calm Calm 1.6 mph2.6 kmh 29.93 in1013.5 mb 0.00 in0.0 mm 0.00 in0.0 mm 0.00 in0.0 mm
06:15 AM 58.3°F14.6°C 58.0°F14.4°C 99% 0.7 mph N1.1 kmh N 1.6 mph2.6 kmh 29.94 in1013.9 mb 0.00 in0.0 mm 0.00 in0.0 mm 0.00 in0.0 mm
06:20 AM 58.3°F14.6°C 58.0°F14.4°C 99% 0.7 mph NNE1.1 kmh NNE 2.2 mph3.5 kmh 29.93 in1013.5 mb 0.00 in0.0 mm 0.00 in0.0 mm 0.00 in0.0 mm
06:25 AM 58.1°F14.5°C 57.8°F14.3°C 99% Calm Calm 2.2 mph3.5 kmh 29.94 in1013.9 mb 0.00 in0.0 mm 0.00 in0.0 mm 0.00 in0.0 mm
06:30 AM 58.3°F14.6°C 58.0°F14.4°C 99% 0.7 mph NNE1.1 kmh NNE 2.2 mph3.5 kmh 29.94 in1013.9 mb 0.00 in0.0 mm 0.00 in0.0 mm 0.00 in0.0 mm
06:35 AM 58.5°F14.7°C 58.2°F14.6°C 99% Calm Calm 2.2 mph3.5 kmh 29.94 in1013.9 mb 0.00 in0.0 mm 0.00 in0.0 mm 0.00 in0.0 mm
06:40 AM 58.5°F14.7°C 58.2°F14.6°C 99% Calm Calm 1.6 mph2.6 kmh 29.94 in1013.9 mb 0.00 in0.0 mm 0.00 in0.0 mm 0.00 in0.0 mm
06:45 AM 58.6°F14.8°C 58.4°F14.7°C 99% 0.7 mph N1.1 kmh N 1.6 mph2.6 kmh 29.94 in1013.9 mb 0.00 in0.0 mm 0.00 in0.0 mm 0.00 in0.0 mm
06:50 AM 59.0°F15.0°C 58.7°F14.8°C 99% 0.7 mph N1.1 kmh N 2.2 mph3.5 kmh 29.94 in1013.9 mb 0.00 in0.0 mm 0.00 in0.0 mm 0.00 in0.0 mm
06:55 AM 59.2°F15.1°C 58.9°F14.9°C 99% Calm Calm 2.2 mph3.5 kmh 29.95 in1014.2 mb 0.00 in0.0 mm 0.00 in0.0 mm 0.00 in0.0 mm
07:00 AM 59.4°F15.2°C 59.1°F15.1°C 99% Calm Calm 1.6 mph2.6 kmh 29.95 in1014.2 mb 0.00 in0.0 mm 0.00 in0.0 mm 0.00 in0.0 mm
07:05 AM 59.5°F15.3°C 59.3°F15.2°C 99% 1.6 mph NNW2.6 kmh NNW 2.2 mph3.5 kmh 29.95 in1014.2 mb 0.00 in0.0 mm 0.00 in0.0 mm 0.00 in0.0 mm
07:10 AM 59.9°F15.5°C 59.6°F15.3°C 99% Calm Calm 2.2 mph3.5 kmh 29.95 in1014.2 mb 0.00 in0.0 mm 0.00 in0.0 mm 0.00 in0.0 mm
07:15 AM 60.3°F15.7°C 60.0°F15.6°C 99% 0.7 mph NNE1.1 kmh NNE 2.2 mph3.5 kmh 29.95 in1014.2 mb 0.00 in0.0 mm 0.00 in0.0 mm 0.00 in0.0 mm
07:20 AM 60.8°F16.0°C 60.2°F15.7°C 98% 0.7 mph NE1.1 kmh NE 2.2 mph3.5 kmh 29.95 in1014.2 mb 0.00 in0.0 mm 0.00 in0.0 mm 0.00 in0.0 mm
07:25 AM 61.7°F16.5°C 61.1°F16.2°C 98% 0.7 mph NE1.1 kmh NE 2.2 mph3.5 kmh 29.95 in1014.2 mb 0.00 in0.0 mm 0.00 in0.0 mm 0.00 in0.0 mm
07:30 AM 62.4°F16.9°C 61.6°F16.4°C 97% 0.7 mph N1.1 kmh N 1.6 mph2.6 kmh 29.95 in1014.2 mb 0.00 in0.0 mm 0.00 in0.0 mm 0.00 in0.0 mm
07:35 AM 63.3°F17.4°C 62.2°F16.8°C 96% Calm Calm 1.6 mph2.6 kmh 29.95 in1014.2 mb 0.00 in0.0 mm 0.00 in0.0 mm 0.00 in0.0 mm
07:40 AM 64.4°F18.0°C 63.3°F17.4°C 96% 0.7 mph NNW1.1 kmh NNW 1.6 mph2.6 kmh 29.95 in1014.2 mb 0.00 in0.0 mm 0.00 in0.0 mm 0.00 in0.0 mm
07:45 AM 65.5°F18.6°C 63.7°F17.6°C 94% Calm Calm 1.6 mph2.6 kmh 29.95 in1014.2 mb 0.00 in0.0 mm 0.00 in0.0 mm 0.00 in0.0 mm
07:50 AM 66.4°F19.1°C 63.4°F17.4°C 90% 1.6 mph WNW2.6 kmh WNW 3.8 mph6.1 kmh 29.95 in1014.2 mb 0.00 in0.0 mm 0.00 in0.0 mm 0.00 in0.0 mm
07:55 AM 66.7°F19.3°C 63.1°F17.3°C 88% 3.1 mph WNW5.0 kmh WNW 4.5 mph7.2 kmh 29.95 in1014.2 mb 0.00 in0.0 mm 0.00 in0.0 mm 0.00 in0.0 mm
08:00 AM 66.9°F19.4°C 62.6°F17.0°C 86% 2.2 mph W3.5 kmh W 4.5 mph7.2 kmh 29.95 in1014.2 mb 0.00 in0.0 mm 0.00 in0.0 mm 0.00 in0.0 mm
08:05 AM 67.3°F19.6°C 62.6°F17.0°C 85% 0.7 mph SW1.1 kmh SW 4.5 mph7.2 kmh 29.96 in1014.6 mb 0.00 in0.0 mm 0.00 in0.0 mm 0.00 in0.0 mm
08:10 AM 67.8°F19.9°C 62.8°F17.1°C 84% 2.2 mph SW3.5 kmh SW 4.5 mph7.2 kmh 29.96 in1014.6 mb 0.00 in0.0 mm 0.00 in0.0 mm 0.00 in0.0 mm
08:15 AM 68.0°F20.0°C 62.7°F17.1°C 83% 2.2 mph WSW3.5 kmh WSW 4.5 mph7.2 kmh 29.96 in1014.6 mb 0.00 in0.0 mm 0.00 in0.0 mm 0.00 in0.0 mm
08:20 AM 68.4°F20.2°C 62.7°F17.1°C 82% 2.2 mph WSW3.5 kmh WSW 4.5 mph7.2 kmh 29.96 in1014.6 mb 0.00 in0.0 mm 0.00 in0.0 mm 0.00 in0.0 mm
08:25 AM 68.7°F20.4°C 62.7°F17.1°C 81% 2.2 mph SW3.5 kmh SW 4.5 mph7.2 kmh 29.96 in1014.6 mb 0.00 in0.0 mm 0.00 in0.0 mm 0.00 in0.0 mm
08:30 AM 68.9°F20.5°C 62.9°F17.2°C 81% 2.2 mph WSW3.5 kmh WSW 4.5 mph7.2 kmh 29.96 in1014.6 mb 0.00 in0.0 mm 0.00 in0.0 mm 0.00 in0.0 mm
08:35 AM 69.1°F20.6°C 62.7°F17.1°C 80% 1.6 mph WSW2.6 kmh WSW 4.5 mph7.2 kmh 29.96 in1014.6 mb 0.00 in0.0 mm 0.00 in0.0 mm 0.00 in0.0 mm
08:40 AM 69.4°F20.8°C 63.0°F17.2°C 80% 1.6 mph SW2.6 kmh SW 4.5 mph7.2 kmh 29.95 in1014.2 mb 0.00 in0.0 mm 0.00 in0.0 mm 0.00 in0.0 mm
08:45 AM 69.8°F21.0°C 62.7°F17.1°C 78% 0.7 mph SW1.1 kmh SW 3.8 mph6.1 kmh 29.96 in1014.6 mb 0.00 in0.0 mm 0.00 in0.0 mm 0.00 in0.0 mm
08:50 AM 70.3°F21.3°C 63.2°F17.3°C 78% 3.1 mph SW5.0 kmh SW 4.5 mph7.2 kmh 29.95 in1014.2 mb 0.00 in0.0 mm 0.00 in0.0 mm 0.00 in0.0 mm
08:55 AM 70.7°F21.5°C 63.5°F17.5°C 78% 3.1 mph W5.0 kmh W 4.5 mph7.2 kmh 29.95 in1014.2 mb 0.00 in0.0 mm 0.00 in0.0 mm 0.00 in0.0 mm
09:00 AM 71.1°F21.7°C 63.5°F17.5°C 77% 1.6 mph WNW2.6 kmh WNW 5.4 mph8.7 kmh 29.95 in1014.2 mb 0.00 in0.0 mm 0.00 in0.0 mm 0.00 in0.0 mm
09:05 AM 71.2°F21.8°C 63.7°F17.6°C 77% Calm Calm 5.4 mph8.7 kmh 29.95 in1014.2 mb 0.00 in0.0 mm 0.00 in0.0 mm 0.00 in0.0 mm
09:10 AM 71.8°F22.1°C 63.5°F17.5°C 75% 0.7 mph W1.1 kmh W 3.8 mph6.1 kmh 29.96 in1014.6 mb 0.00 in0.0 mm 0.00 in0.0 mm 0.00 in0.0 mm
09:15 AM 72.1°F22.3°C 63.0°F17.2°C 73% Calm Calm 3.8 mph6.1 kmh 29.96 in1014.6 mb 0.00 in0.0 mm 0.00 in0.0 mm 0.00 in0.0 mm
09:20 AM 72.7°F22.6°C 63.9°F17.7°C 74% 3.1 mph W5.0 kmh W 4.5 mph7.2 kmh 29.95 in1014.2 mb 0.00 in0.0 mm 0.00 in0.0 mm 0.00 in0.0 mm
09:25 AM 72.9°F22.7°C 64.1°F17.8°C 74% 3.1 mph W5.0 kmh W 4.5 mph7.2 kmh 29.95 in1014.2 mb 0.00 in0.0 mm 0.00 in0.0 mm 0.00 in0.0 mm
09:30 AM 72.9°F22.7°C 63.7°F17.6°C 73% 3.8 mph NW6.1 kmh NW 4.5 mph7.2 kmh 29.95 in1014.2 mb 0.00 in0.0 mm 0.00 in0.0 mm 0.00 in0.0 mm
09:35 AM 73.2°F22.9°C 64.5°F18.1°C 74% 1.6 mph NNW2.6 kmh NNW 4.5 mph7.2 kmh 29.95 in1014.2 mb 0.00 in0.0 mm 0.00 in0.0 mm 0.00 in0.0 mm
09:40 AM 73.6°F23.1°C 65.2°F18.4°C 75% 3.1 mph NNW5.0 kmh NNW 4.5 mph7.2 kmh 29.95 in1014.2 mb 0.00 in0.0 mm 0.00 in0.0 mm 0.00 in0.0 mm
09:45 AM 73.8°F23.2°C 64.6°F18.1°C 73% 0.7 mph WNW1.1 kmh WNW 3.8 mph6.1 kmh 29.95 in1014.2 mb 0.00 in0.0 mm 0.00 in0.0 mm 0.00 in0.0 mm
09:50 AM 74.1°F23.4°C 63.7°F17.6°C 70% 0.7 mph SW1.1 kmh SW 4.5 mph7.2 kmh 29.95 in1014.2 mb 0.00 in0.0 mm 0.00 in0.0 mm 0.00 in0.0 mm
09:55 AM 74.8°F23.8°C 64.4°F18.0°C 70% 3.1 mph SW5.0 kmh SW 4.5 mph7.2 kmh 29.94 in1013.9 mb 0.00 in0.0 mm 0.00 in0.0 mm 0.00 in0.0 mm
10:00 AM 75.2°F24.0°C 63.9°F17.7°C 68% 1.6 mph SW2.6 kmh SW 4.5 mph7.2 kmh 29.94 in1013.9 mb 0.00 in0.0 mm 0.00 in0.0 mm 0.00 in0.0 mm
10:05 AM 75.7°F24.3°C 64.5°F18.1°C 68% 3.1 mph W5.0 kmh W 5.4 mph8.7 kmh 29.94 in1013.9 mb 0.00 in0.0 mm 0.00 in0.0 mm 0.00 in0.0 mm
10:10 AM 76.3°F24.6°C 64.6°F18.1°C 67% 3.1 mph WSW5.0 kmh WSW 5.4 mph8.7 kmh 29.94 in1013.9 mb 0.00 in0.0 mm 0.00 in0.0 mm 0.00 in0.0 mm
10:15 AM 76.6°F24.8°C 64.5°F18.1°C 66% 1.6 mph SW2.6 kmh SW 5.4 mph8.7 kmh 29.94 in1013.9 mb 0.00 in0.0 mm 0.00 in0.0 mm 0.00 in0.0 mm
10:20 AM 77.2°F25.1°C 64.1°F17.8°C 64% 2.2 mph SW3.5 kmh SW 5.4 mph8.7 kmh 29.94 in1013.9 mb 0.00 in0.0 mm 0.00 in0.0 mm 0.00 in0.0 mm
10:25 AM 77.5°F25.3°C 64.4°F18.0°C 64% 3.8 mph WSW6.1 kmh WSW 5.4 mph8.7 kmh 29.94 in1013.9 mb 0.00 in0.0 mm 0.00 in0.0 mm 0.00 in0.0 mm
10:30 AM 77.5°F25.3°C 64.4°F18.0°C 64% 2.2 mph W3.5 kmh W 6.0 mph9.7 kmh 29.94 in1013.9 mb 0.00 in0.0 mm 0.00 in0.0 mm 0.00 in0.0 mm
10:35 AM 77.9°F25.5°C 64.8°F18.2°C 64% 3.1 mph WSW5.0 kmh WSW 6.0 mph9.7 kmh 29.94 in1013.9 mb 0.00 in0.0 mm 0.00 in0.0 mm 0.00 in0.0 mm
10:40 AM 78.1°F25.6°C 65.4°F18.6°C 65% 1.6 mph WSW2.6 kmh WSW 6.0 mph9.7 kmh 29.94 in1013.9 mb 0.00 in0.0 mm 0.00 in0.0 mm 0.00 in0.0 mm
10:45 AM 79.0°F26.1°C 65.8°F18.8°C 64% 2.2 mph W3.5 kmh W 6.0 mph9.7 kmh 29.94 in1013.9 mb 0.00 in0.0 mm 0.00 in0.0 mm 0.00 in0.0 mm
10:50 AM 79.5°F26.4°C 66.3°F19.1°C 64% 3.8 mph W6.1 kmh W 5.4 mph8.7 kmh 29.94 in1013.9 mb 0.00 in0.0 mm 0.00 in0.0 mm 0.00 in0.0 mm
10:55 AM 79.7°F26.5°C 65.6°F18.7°C 62% 3.1 mph WSW5.0 kmh WSW 6.0 mph9.7 kmh 29.94 in1013.9 mb 0.00 in0.0 mm 0.00 in0.0 mm 0.00 in0.0 mm
11:00 AM 80.1°F26.7°C 65.0°F18.3°C 60% 3.1 mph SW5.0 kmh SW 6.0 mph9.7 kmh 29.94 in1013.9 mb 0.00 in0.0 mm 0.00 in0.0 mm 0.00 in0.0 mm
11:05 AM 80.1°F26.7°C 65.0°F18.3°C 60% 4.5 mph SW7.2 kmh SW 6.0 mph9.7 kmh 29.93 in1013.5 mb 0.00 in0.0 mm 0.00 in0.0 mm 0.00 in0.0 mm
11:10 AM 80.8°F27.1°C 65.2°F18.4°C 59% 3.8 mph SW6.1 kmh SW 5.4 mph8.7 kmh 29.94 in1013.9 mb 0.00 in0.0 mm 0.00 in0.0 mm 0.00 in0.0 mm
11:15 AM 81.1°F27.3°C 64.5°F18.1°C 57% 2.2 mph SW3.5 kmh SW 5.4 mph8.7 kmh 29.93 in1013.5 mb 0.00 in0.0 mm 0.00 in0.0 mm 0.00 in0.0 mm
11:20 AM 81.7°F27.6°C 65.5°F18.6°C 58% 3.8 mph SW6.1 kmh SW 5.4 mph8.7 kmh 29.93 in1013.5 mb 0.00 in0.0 mm 0.00 in0.0 mm 0.00 in0.0 mm
11:25 AM 82.0°F27.8°C 66.3°F19.1°C 59% 3.8 mph WSW6.1 kmh WSW 6.0 mph9.7 kmh 29.93 in1013.5 mb 0.00 in0.0 mm 0.00 in0.0 mm 0.00 in0.0 mm
11:30 AM 82.8°F28.2°C 66.0°F18.9°C 57% 0.7 mph SW1.1 kmh SW 6.9 mph11.1 kmh 29.93 in1013.5 mb 0.00 in0.0 mm 0.00 in0.0 mm 0.00 in0.0 mm
11:35 AM 83.7°F28.7°C 66.4°F19.1°C 56% 2.2 mph SSW3.5 kmh SSW 6.9 mph11.1 kmh 29.93 in1013.5 mb 0.00 in0.0 mm 0.00 in0.0 mm 0.00 in0.0 mm
11:40 AM 83.7°F28.7°C 66.4°F19.1°C 56% 2.2 mph SSW3.5 kmh SSW 6.0 mph9.7 kmh 29.93 in1013.5 mb 0.00 in0.0 mm 0.00 in0.0 mm 0.00 in0.0 mm
11:45 AM 83.7°F28.7°C 65.8°F18.8°C 55% 3.8 mph SW6.1 kmh SW 6.0 mph9.7 kmh 29.93 in1013.5 mb 0.00 in0.0 mm 0.00 in0.0 mm 0.00 in0.0 mm
11:50 AM 83.5°F28.6°C 66.2°F19.0°C 56% 2.2 mph W3.5 kmh W 7.6 mph12.2 kmh 29.92 in1013.2 mb 0.00 in0.0 mm 0.00 in0.0 mm 0.00 in0.0 mm
11:55 AM 83.3°F28.5°C 66.0°F18.9°C 56% 3.1 mph W5.0 kmh W 7.6 mph12.2 kmh 29.93 in1013.5 mb 0.00 in0.0 mm 0.00 in0.0 mm 0.00 in0.0 mm
12:00 PM 83.1°F28.4°C 64.8°F18.2°C 54% 3.8 mph W6.1 kmh W 7.6 mph12.2 kmh 29.92 in1013.2 mb 0.00 in0.0 mm 0.00 in0.0 mm 0.00 in0.0 mm
12:05 PM 82.8°F28.2°C 65.0°F18.3°C 55% 3.8 mph W6.1 kmh W 7.6 mph12.2 kmh 29.93 in1013.5 mb 0.00 in0.0 mm 0.00 in0.0 mm 0.00 in0.0 mm
12:10 PM 83.1°F28.4°C 65.8°F18.8°C 56% 4.5 mph W7.2 kmh W 6.9 mph11.1 kmh 29.93 in1013.5 mb 0.00 in0.0 mm 0.00 in0.0 mm 0.00 in0.0 mm
12:15 PM 83.5°F28.6°C 65.7°F18.7°C 55% 3.1 mph WSW5.0 kmh WSW 7.6 mph12.2 kmh 29.93 in1013.5 mb 0.00 in0.0 mm 0.00 in0.0 mm 0.00 in0.0 mm
12:20 PM 83.8°F28.8°C 65.5°F18.6°C 54% 3.1 mph SW5.0 kmh SW 7.6 mph12.2 kmh 29.93 in1013.5 mb 0.00 in0.0 mm 0.00 in0.0 mm 0.00 in0.0 mm
12:25 PM 84.0°F28.9°C 66.2°F19.0°C 55% 3.1 mph W5.0 kmh W 7.6 mph12.2 kmh 29.92 in1013.2 mb 0.00 in0.0 mm 0.00 in0.0 mm 0.00 in0.0 mm
12:30 PM 83.8°F28.8°C 66.0°F18.9°C 55% 5.4 mph NW8.7 kmh NW 8.3 mph13.4 kmh 29.92 in1013.2 mb 0.00 in0.0 mm 0.00 in0.0 mm 0.00 in0.0 mm
12:35 PM 83.5°F28.6°C 65.7°F18.7°C 55% 3.1 mph WNW5.0 kmh WNW 8.3 mph13.4 kmh 29.92 in1013.2 mb 0.00 in0.0 mm 0.00 in0.0 mm 0.00 in0.0 mm
12:40 PM 83.8°F28.8°C 66.5°F19.2°C 56% 3.1 mph W5.0 kmh W 7.6 mph12.2 kmh 29.92 in1013.2 mb 0.00 in0.0 mm 0.00 in0.0 mm 0.00 in0.0 mm
12:45 PM 84.6°F29.2°C 66.1°F18.9°C 54% 3.8 mph WNW6.1 kmh WNW 6.0 mph9.7 kmh 29.92 in1013.2 mb 0.00 in0.0 mm 0.00 in0.0 mm 0.00 in0.0 mm
12:50 PM 84.9°F29.4°C 66.5°F19.2°C 54% 2.2 mph WNW3.5 kmh WNW 6.9 mph11.1 kmh 29.92 in1013.2 mb 0.00 in0.0 mm 0.00 in0.0 mm 0.00 in0.0 mm
12:55 PM 85.3°F29.6°C 65.7°F18.7°C 52% 4.5 mph WNW7.2 kmh WNW 7.6 mph12.2 kmh 29.92 in1013.2 mb 0.00 in0.0 mm 0.00 in0.0 mm 0.00 in0.0 mm
01:00 PM 85.3°F29.6°C 65.2°F18.4°C 51% 3.1 mph W5.0 kmh W 7.6 mph12.2 kmh 29.91 in1012.9 mb 0.00 in0.0 mm 0.00 in0.0 mm 0.00 in0.0 mm
01:05 PM 85.8°F29.9°C 65.7°F18.7°C 51% 2.2 mph W3.5 kmh W 7.6 mph12.2 kmh 29.91 in1012.9 mb 0.00 in0.0 mm 0.00 in0.0 mm 0.00 in0.0 mm
01:10 PM 86.4°F30.2°C 64.4°F18.0°C 48% 2.2 mph WNW3.5 kmh WNW 6.9 mph11.1 kmh 29.91 in1012.9 mb 0.00 in0.0 mm 0.00 in0.0 mm 0.00 in0.0 mm
01:15 PM 86.7°F30.4°C 65.3°F18.5°C 49% 5.4 mph W8.7 kmh W 6.9 mph11.1 kmh 29.91 in1012.9 mb 0.00 in0.0 mm 0.00 in0.0 mm 0.00 in0.0 mm
01:20 PM 87.4°F30.8°C 64.8°F18.2°C 47% 3.1 mph WSW5.0 kmh WSW 6.9 mph11.1 kmh 29.91 in1012.9 mb 0.00 in0.0 mm 0.00 in0.0 mm 0.00 in0.0 mm
01:25 PM 88.0°F31.1°C 64.7°F18.2°C 46% 3.8 mph WSW6.1 kmh WSW 6.0 mph9.7 kmh 29.91 in1012.9 mb 0.00 in0.0 mm 0.00 in0.0 mm 0.00 in0.0 mm
01:30 PM 88.3°F31.3°C 65.0°F18.3°C 46% 3.8 mph W6.1 kmh W 7.6 mph12.2 kmh 29.91 in1012.9 mb 0.00 in0.0 mm 0.00 in0.0 mm 0.00 in0.0 mm
01:35 PM 88.9°F31.6°C 64.9°F18.3°C 45% 4.5 mph W7.2 kmh W 7.6 mph12.2 kmh 29.91 in1012.9 mb 0.00 in0.0 mm 0.00 in0.0 mm 0.00 in0.0 mm
01:40 PM 89.1°F31.7°C 65.0°F18.3°C 45% 3.1 mph W5.0 kmh W 7.6 mph12.2 kmh 29.91 in1012.9 mb 0.00 in0.0 mm 0.00 in0.0 mm 0.00 in0.0 mm
01:45 PM 89.6°F32.0°C 64.2°F17.9°C 43% 1.6 mph WNW2.6 kmh WNW 6.9 mph11.1 kmh 29.91 in1012.9 mb 0.00 in0.0 mm 0.00 in0.0 mm 0.00 in0.0 mm
01:50 PM 90.0°F32.2°C 63.9°F17.7°C 42% 5.4 mph WNW8.7 kmh WNW 7.6 mph12.2 kmh 29.91 in1012.9 mb 0.00 in0.0 mm 0.00 in0.0 mm 0.00 in0.0 mm
01:55 PM 90.0°F32.2°C 63.9°F17.7°C 42% 4.5 mph WNW7.2 kmh WNW 7.6 mph12.2 kmh 29.91 in1012.9 mb 0.00 in0.0 mm 0.00 in0.0 mm 0.00 in0.0 mm
02:00 PM 90.0°F32.2°C 63.9°F17.7°C 42% 1.6 mph WNW2.6 kmh WNW 7.6 mph12.2 kmh 29.90 in1012.5 mb 0.00 in0.0 mm 0.00 in0.0 mm 0.00 in0.0 mm
02:05 PM 90.3°F32.4°C 63.5°F17.5°C 41% 2.2 mph NW3.5 kmh NW 7.6 mph12.2 kmh 29.90 in1012.5 mb 0.00 in0.0 mm 0.00 in0.0 mm 0.00 in0.0 mm
02:10 PM 90.3°F32.4°C 63.5°F17.5°C 41% 2.2 mph W3.5 kmh W 7.6 mph12.2 kmh 29.90 in1012.5 mb 0.00 in0.0 mm 0.00 in0.0 mm 0.00 in0.0 mm
02:15 PM 90.7°F32.6°C 63.1°F17.3°C 40% 3.8 mph WSW6.1 kmh WSW 5.4 mph8.7 kmh 29.90 in1012.5 mb 0.00 in0.0 mm 0.00 in0.0 mm 0.00 in0.0 mm
02:20 PM 90.9°F32.7°C 63.3°F17.4°C 40% 3.8 mph WSW6.1 kmh WSW 5.4 mph8.7 kmh 29.89 in1012.2 mb 0.00 in0.0 mm 0.00 in0.0 mm 0.00 in0.0 mm
02:25 PM 90.9°F32.7°C 63.3°F17.4°C 40% 4.5 mph WNW7.2 kmh WNW 9.2 mph14.8 kmh 29.89 in1012.2 mb 0.00 in0.0 mm 0.00 in0.0 mm 0.00 in0.0 mm
02:30 PM 90.5°F32.5°C 62.2°F16.8°C 39% 3.1 mph NW5.0 kmh NW 9.2 mph14.8 kmh 29.89 in1012.2 mb 0.00 in0.0 mm 0.00 in0.0 mm 0.00 in0.0 mm
02:35 PM 89.8°F32.1°C 62.3°F16.8°C 40% 3.8 mph WNW6.1 kmh WNW 6.9 mph11.1 kmh 29.89 in1012.2 mb 0.00 in0.0 mm 0.00 in0.0 mm 0.00 in0.0 mm
02:40 PM 89.4°F31.9°C 62.0°F16.7°C 40% 3.1 mph WNW5.0 kmh WNW 6.9 mph11.1 kmh 29.89 in1012.2 mb 0.00 in0.0 mm 0.00 in0.0 mm 0.00 in0.0 mm
02:45 PM 90.1°F32.3°C 61.2°F16.2°C 38% 3.1 mph NW5.0 kmh NW 5.4 mph8.7 kmh 29.89 in1012.2 mb 0.00 in0.0 mm 0.00 in0.0 mm 0.00 in0.0 mm
02:50 PM 90.9°F32.7°C 63.3°F17.4°C 40% 3.8 mph WNW6.1 kmh WNW 9.2 mph14.8 kmh 29.89 in1012.2 mb 0.00 in0.0 mm 0.00 in0.0 mm 0.00 in0.0 mm
02:55 PM 90.7°F32.6°C 63.1°F17.3°C 40% 5.4 mph NW8.7 kmh NW 9.2 mph14.8 kmh 29.89 in1012.2 mb 0.00 in0.0 mm 0.00 in0.0 mm 0.00 in0.0 mm
03:00 PM 90.7°F32.6°C 62.4°F16.9°C 39% 5.4 mph NW8.7 kmh NW 11.4 mph18.3 kmh 29.88 in1011.9 mb 0.00 in0.0 mm 0.00 in0.0 mm 0.00 in0.0 mm
03:05 PM 91.2°F32.9°C 61.4°F16.3°C 37% 6.0 mph NW9.7 kmh NW 11.4 mph18.3 kmh 29.88 in1011.9 mb 0.00 in0.0 mm 0.00 in0.0 mm 0.00 in0.0 mm
03:10 PM 91.6°F33.1°C 62.4°F16.9°C 38% 6.0 mph NW9.7 kmh NW 9.2 mph14.8 kmh 29.88 in1011.9 mb 0.00 in0.0 mm 0.00 in0.0 mm 0.00 in0.0 mm
03:15 PM 91.6°F33.1°C 60.9°F16.1°C 36% 6.0 mph NW9.7 kmh NW 11.4 mph18.3 kmh 29.88 in1011.9 mb 0.00 in0.0 mm 0.00 in0.0 mm 0.00 in0.0 mm
03:20 PM 91.6°F33.1°C 60.9°F16.1°C 36% 6.9 mph WNW11.1 kmh WNW 11.4 mph18.3 kmh 29.88 in1011.9 mb 0.00 in0.0 mm 0.00 in0.0 mm 0.00 in0.0 mm
03:25 PM 91.2°F32.9°C 58.2°F14.6°C 33% 6.0 mph WNW9.7 kmh WNW 9.2 mph14.8 kmh 29.88 in1011.9 mb 0.00 in0.0 mm 0.00 in0.0 mm 0.00 in0.0 mm
03:30 PM 90.5°F32.5°C 58.4°F14.7°C 34% 4.5 mph W7.2 kmh W 10.7 mph17.2 kmh 29.88 in1011.9 mb 0.00 in0.0 mm 0.00 in0.0 mm 0.00 in0.0 mm
03:35 PM 90.3°F32.4°C 59.8°F15.4°C 36% 5.4 mph W8.7 kmh W 10.7 mph17.2 kmh 29.88 in1011.9 mb 0.00 in0.0 mm 0.00 in0.0 mm 0.00 in0.0 mm
03:40 PM 90.5°F32.5°C 57.5°F14.2°C 33% 4.5 mph W7.2 kmh W 7.6 mph12.2 kmh 29.88 in1011.9 mb 0.00 in0.0 mm 0.00 in0.0 mm 0.00 in0.0 mm
03:45 PM 90.7°F32.6°C 58.5°F14.7°C 34% 2.2 mph WSW3.5 kmh WSW 6.9 mph11.1 kmh 29.88 in1011.9 mb 0.00 in0.0 mm 0.00 in0.0 mm 0.00 in0.0 mm
03:50 PM 91.0°F32.8°C 59.6°F15.3°C 35% 1.6 mph WSW2.6 kmh WSW 6.9 mph11.1 kmh 29.88 in1011.9 mb 0.00 in0.0 mm 0.00 in0.0 mm 0.00 in0.0 mm
03:55 PM 91.4°F33.0°C 60.8°F16.0°C 36% 1.6 mph WSW2.6 kmh WSW 4.5 mph7.2 kmh 29.88 in1011.9 mb 0.00 in0.0 mm 0.00 in0.0 mm 0.00 in0.0 mm
04:00 PM 91.2°F32.9°C 58.2°F14.6°C 33% 2.2 mph W3.5 kmh W 9.2 mph14.8 kmh 29.88 in1011.9 mb 0.00 in0.0 mm 0.00 in0.0 mm 0.00 in0.0 mm
04:05 PM 90.9°F32.7°C 58.7°F14.8°C 34% 3.8 mph WNW6.1 kmh WNW 9.2 mph14.8 kmh 29.88 in1011.9 mb 0.00 in0.0 mm 0.00 in0.0 mm 0.00 in0.0 mm
04:10 PM 90.5°F32.5°C 60.0°F15.6°C 36% 4.5 mph WNW7.2 kmh WNW 8.3 mph13.4 kmh 29.87 in1011.5 mb 0.00 in0.0 mm 0.00 in0.0 mm 0.00 in0.0 mm
04:15 PM 90.1°F32.3°C 58.9°F14.9°C 35% 5.4 mph W8.7 kmh W 9.8 mph15.8 kmh 29.87 in1011.5 mb 0.00 in0.0 mm 0.00 in0.0 mm 0.00 in0.0 mm
04:20 PM 89.6°F32.0°C 56.7°F13.7°C 33% 6.9 mph WNW11.1 kmh WNW 10.7 mph17.2 kmh 29.88 in1011.9 mb 0.00 in0.0 mm 0.00 in0.0 mm 0.00 in0.0 mm
04:25 PM 89.1°F31.7°C 57.1°F13.9°C 34% 6.0 mph NW9.7 kmh NW 10.7 mph17.2 kmh 29.87 in1011.5 mb 0.00 in0.0 mm 0.00 in0.0 mm 0.00 in0.0 mm
04:30 PM 88.9°F31.6°C 59.3°F15.2°C 37% 2.2 mph NW3.5 kmh NW 9.8 mph15.8 kmh 29.87 in1011.5 mb 0.00 in0.0 mm 0.00 in0.0 mm 0.00 in0.0 mm
04:35 PM 89.4°F31.9°C 59.0°F15.0°C 36% 6.0 mph WNW9.7 kmh WNW 8.3 mph13.4 kmh 29.87 in1011.5 mb 0.00 in0.0 mm 0.00 in0.0 mm 0.00 in0.0 mm
04:40 PM 90.0°F32.2°C 57.1°F13.9°C 33% 3.8 mph WNW6.1 kmh WNW 8.3 mph13.4 kmh 29.87 in1011.5 mb 0.00 in0.0 mm 0.00 in0.0 mm 0.00 in0.0 mm
04:45 PM 90.5°F32.5°C 58.4°F14.7°C 34% 2.2 mph NW3.5 kmh NW 8.3 mph13.4 kmh 29.87 in1011.5 mb 0.00 in0.0 mm 0.00 in0.0 mm 0.00 in0.0 mm
04:50 PM 90.1°F32.3°C 56.4°F13.6°C 32% 5.4 mph NW8.7 kmh NW 9.2 mph14.8 kmh 29.87 in1011.5 mb 0.00 in0.0 mm 0.00 in0.0 mm 0.00 in0.0 mm
04:55 PM 89.6°F32.0°C 58.4°F14.7°C 35% 2.2 mph NW3.5 kmh NW 9.2 mph14.8 kmh 29.87 in1011.5 mb 0.00 in0.0 mm 0.00 in0.0 mm 0.00 in0.0 mm
05:00 PM 89.6°F32.0°C 57.6°F14.2°C 34% 6.0 mph NW9.7 kmh NW 9.8 mph15.8 kmh 29.87 in1011.5 mb 0.00 in0.0 mm 0.00 in0.0 mm 0.00 in0.0 mm
05:05 PM 90.1°F32.3°C 57.2°F14.0°C 33% 6.0 mph WNW9.7 kmh WNW 9.8 mph15.8 kmh 29.86 in1011.2 mb 0.00 in0.0 mm 0.00 in0.0 mm 0.00 in0.0 mm
05:10 PM 90.5°F32.5°C 57.5°F14.2°C 33% 6.0 mph W9.7 kmh W 9.2 mph14.8 kmh 29.86 in1011.2 mb 0.00 in0.0 mm 0.00 in0.0 mm 0.00 in0.0 mm
05:15 PM 90.9°F32.7°C 56.1°F13.4°C 31% 3.1 mph W5.0 kmh W 9.2 mph14.8 kmh 29.86 in1011.2 mb 0.00 in0.0 mm 0.00 in0.0 mm 0.00 in0.0 mm
05:20 PM 91.4°F33.0°C 60.0°F15.6°C 35% 5.4 mph W8.7 kmh W 9.2 mph14.8 kmh 29.86 in1011.2 mb 0.00 in0.0 mm 0.00 in0.0 mm 0.00 in0.0 mm
05:25 PM 91.6°F33.1°C 56.7°F13.7°C 31% 2.2 mph W3.5 kmh W 9.2 mph14.8 kmh 29.86 in1011.2 mb 0.00 in0.0 mm 0.00 in0.0 mm 0.00 in0.0 mm
05:30 PM 91.9°F33.3°C 60.4°F15.8°C 35% 3.1 mph W5.0 kmh W 7.6 mph12.2 kmh 29.86 in1011.2 mb 0.00 in0.0 mm 0.00 in0.0 mm 0.00 in0.0 mm
05:35 PM 92.1°F33.4°C 58.9°F14.9°C 33% 4.5 mph W7.2 kmh W 7.6 mph12.2 kmh 29.86 in1011.2 mb 0.00 in0.0 mm 0.00 in0.0 mm 0.00 in0.0 mm
05:40 PM 91.9°F33.3°C 58.8°F14.9°C 33% 3.1 mph WNW5.0 kmh WNW 7.6 mph12.2 kmh 29.86 in1011.2 mb 0.00 in0.0 mm 0.00 in0.0 mm 0.00 in0.0 mm
05:45 PM 91.2°F32.9°C 55.5°F13.1°C 30% 3.8 mph WNW6.1 kmh WNW 8.3 mph13.4 kmh 29.86 in1011.2 mb 0.00 in0.0 mm 0.00 in0.0 mm 0.00 in0.0 mm
05:50 PM 91.0°F32.8°C 56.3°F13.5°C 31% 3.1 mph WNW5.0 kmh WNW 9.2 mph14.8 kmh 29.86 in1011.2 mb 0.00 in0.0 mm 0.00 in0.0 mm 0.00 in0.0 mm
05:55 PM 90.9°F32.7°C 56.1°F13.4°C 31% 3.8 mph WNW6.1 kmh WNW 9.2 mph14.8 kmh 29.86 in1011.2 mb 0.00 in0.0 mm 0.00 in0.0 mm 0.00 in0.0 mm
06:00 PM 90.1°F32.3°C 54.6°F12.6°C 30% 1.6 mph WNW2.6 kmh WNW 6.0 mph9.7 kmh 29.86 in1011.2 mb 0.00 in0.0 mm 0.00 in0.0 mm 0.00 in0.0 mm
06:05 PM 89.4°F31.9°C 55.7°F13.2°C 32% 3.1 mph WNW5.0 kmh WNW 6.9 mph11.1 kmh 29.86 in1011.2 mb 0.00 in0.0 mm 0.00 in0.0 mm 0.00 in0.0 mm
06:10 PM 89.2°F31.8°C 58.1°F14.5°C 35% 3.1 mph NW5.0 kmh NW 6.9 mph11.1 kmh 29.86 in1011.2 mb 0.00 in0.0 mm 0.00 in0.0 mm 0.00 in0.0 mm
06:15 PM 90.0°F32.2°C 57.9°F14.4°C 34% 2.2 mph NNW3.5 kmh NNW 6.9 mph11.1 kmh 29.86 in1011.2 mb 0.00 in0.0 mm 0.00 in0.0 mm 0.00 in0.0 mm
06:20 PM 90.9°F32.7°C 57.8°F14.3°C 33% 1.6 mph N2.6 kmh N 6.0 mph9.7 kmh 29.85 in1010.8 mb 0.00 in0.0 mm 0.00 in0.0 mm 0.00 in0.0 mm
06:25 PM 90.9°F32.7°C 57.8°F14.3°C 33% 0.7 mph N1.1 kmh N 4.5 mph7.2 kmh 29.86 in1011.2 mb 0.00 in0.0 mm 0.00 in0.0 mm 0.00 in0.0 mm
06:30 PM 90.9°F32.7°C 58.7°F14.8°C 34% 2.2 mph N3.5 kmh N 4.5 mph7.2 kmh 29.86 in1011.2 mb 0.00 in0.0 mm 0.00 in0.0 mm 0.00 in0.0 mm
06:35 PM 90.5°F32.5°C 60.0°F15.6°C 36% 1.6 mph N2.6 kmh N 5.4 mph8.7 kmh 29.86 in1011.2 mb 0.00 in0.0 mm 0.00 in0.0 mm 0.00 in0.0 mm
06:40 PM 90.1°F32.3°C 57.2°F14.0°C 33% 3.1 mph N5.0 kmh N 5.4 mph8.7 kmh 29.86 in1011.2 mb 0.00 in0.0 mm 0.00 in0.0 mm 0.00 in0.0 mm
06:45 PM 90.0°F32.2°C 57.9°F14.4°C 34% 4.5 mph N7.2 kmh N 5.4 mph8.7 kmh 29.86 in1011.2 mb 0.00 in0.0 mm 0.00 in0.0 mm 0.00 in0.0 mm
06:50 PM 89.4°F31.9°C 60.5°F15.8°C 38% 3.8 mph N6.1 kmh N 7.6 mph12.2 kmh 29.86 in1011.2 mb 0.00 in0.0 mm 0.00 in0.0 mm 0.00 in0.0 mm
06:55 PM 88.5°F31.4°C 61.9°F16.6°C 41% 3.1 mph N5.0 kmh N 8.3 mph13.4 kmh 29.86 in1011.2 mb 0.00 in0.0 mm 0.00 in0.0 mm 0.00 in0.0 mm
07:00 PM 87.8°F31.0°C 61.9°F16.6°C 42% 3.1 mph NNW5.0 kmh NNW 8.3 mph13.4 kmh 29.86 in1011.2 mb 0.00 in0.0 mm 0.00 in0.0 mm 0.00 in0.0 mm
07:05 PM 87.1°F30.6°C 61.9°F16.6°C 43% 4.5 mph NNW7.2 kmh NNW 9.8 mph15.8 kmh 29.86 in1011.2 mb 0.00 in0.0 mm 0.00 in0.0 mm 0.00 in0.0 mm
07:10 PM 86.4°F30.2°C 61.3°F16.3°C 43% 3.8 mph N6.1 kmh N 9.8 mph15.8 kmh 29.86 in1011.2 mb 0.00 in0.0 mm 0.00 in0.0 mm 0.00 in0.0 mm
07:15 PM 85.8°F29.9°C 61.4°F16.3°C 44% 5.4 mph NNW8.7 kmh NNW 6.9 mph11.1 kmh 29.86 in1011.2 mb 0.00 in0.0 mm 0.00 in0.0 mm 0.00 in0.0 mm
07:20 PM 85.1°F29.5°C 60.8°F16.0°C 44% 6.0 mph N9.7 kmh N 7.6 mph12.2 kmh 29.85 in1010.8 mb 0.00 in0.0 mm 0.00 in0.0 mm 0.00 in0.0 mm
07:25 PM 84.6°F29.2°C 60.3°F15.7°C 44% 1.6 mph N2.6 kmh N 7.6 mph12.2 kmh 29.86 in1011.2 mb 0.00 in0.0 mm 0.00 in0.0 mm 0.00 in0.0 mm
07:30 PM 84.2°F29.0°C 60.0°F15.6°C 44% 3.1 mph N5.0 kmh N 6.0 mph9.7 kmh 29.86 in1011.2 mb 0.00 in0.0 mm 0.00 in0.0 mm 0.00 in0.0 mm
07:35 PM 83.8°F28.8°C 60.3°F15.7°C 45% 3.8 mph N6.1 kmh N 7.6 mph12.2 kmh 29.85 in1010.8 mb 0.00 in0.0 mm 0.00 in0.0 mm 0.00 in0.0 mm
07:40 PM 83.7°F28.7°C 60.1°F15.6°C 45% 2.2 mph N3.5 kmh N 7.6 mph12.2 kmh 29.86 in1011.2 mb 0.00 in0.0 mm 0.00 in0.0 mm 0.00 in0.0 mm
07:45 PM 83.7°F28.7°C 60.1°F15.6°C 45% 4.5 mph N7.2 kmh N 6.0 mph9.7 kmh 29.86 in1011.2 mb 0.00 in0.0 mm 0.00 in0.0 mm 0.00 in0.0 mm
07:50 PM 83.7°F28.7°C 60.1°F15.6°C 45% 0.7 mph N1.1 kmh N 6.0 mph9.7 kmh 29.87 in1011.5 mb 0.00 in0.0 mm 0.00 in0.0 mm 0.00 in0.0 mm
07:55 PM 83.8°F28.8°C 59.0°F15.0°C 43% 1.6 mph NNE2.6 kmh NNE 6.9 mph11.1 kmh 29.88 in1011.9 mb 0.00 in0.0 mm 0.00 in0.0 mm 0.00 in0.0 mm
08:00 PM 84.0°F28.9°C 59.2°F15.1°C 43% 13.6 mph ESE21.9 kmh ESE 21.3 mph34.3 kmh 29.89 in1012.2 mb 0.00 in0.0 mm 0.00 in0.0 mm 0.00 in0.0 mm
08:05 PM 82.4°F28.0°C 57.0°F13.9°C 42% 20.6 mph SE33.2 kmh SE 25.9 mph41.7 kmh 29.90 in1012.5 mb 0.00 in0.0 mm 0.00 in0.0 mm 0.00 in0.0 mm
08:15 PM 78.1°F25.6°C 54.4°F12.4°C 44% 13.0 mph E20.9 kmh E 22.8 mph36.7 kmh 29.89 in1012.2 mb 0.00 in0.0 mm 0.00 in0.0 mm 0.00 in0.0 mm
08:20 PM 77.2°F25.1°C 54.2°F12.3°C 45% 9.8 mph E15.8 kmh E 22.8 mph36.7 kmh 29.91 in1012.9 mb 0.00 in0.0 mm 0.00 in0.0 mm 0.00 in0.0 mm
08:25 PM 76.1°F24.5°C 55.0°F12.8°C 48% 13.6 mph ESE21.9 kmh ESE 20.6 mph33.2 kmh 29.92 in1013.2 mb 0.00 in0.0 mm 0.00 in0.0 mm 0.00 in0.0 mm
08:30 PM 75.6°F24.2°C 56.2°F13.4°C 51% 9.8 mph SE15.8 kmh SE 20.6 mph33.2 kmh 29.91 in1012.9 mb 0.00 in0.0 mm 0.00 in0.0 mm 0.00 in0.0 mm
08:35 PM 75.6°F24.2°C 56.2°F13.4°C 51% 9.8 mph SE15.8 kmh SE 19.0 mph30.6 kmh 29.92 in1013.2 mb 0.00 in0.0 mm 0.00 in0.0 mm 0.00 in0.0 mm
08:40 PM 75.6°F24.2°C 56.2°F13.4°C 51% 9.8 mph SE15.8 kmh SE 19.0 mph30.6 kmh 29.92 in1013.2 mb 0.00 in0.0 mm 0.00 in0.0 mm 0.00 in0.0 mm
08:45 PM 75.6°F24.2°C 56.2°F13.4°C 51% 9.8 mph SE15.8 kmh SE 19.0 mph30.6 kmh 29.93 in1013.5 mb 0.00 in0.0 mm 0.00 in0.0 mm 0.00 in0.0 mm
08:50 PM 75.6°F24.2°C 56.2°F13.4°C 51% 9.8 mph SE15.8 kmh SE 19.0 mph30.6 kmh 29.94 in1013.9 mb 0.00 in0.0 mm 0.00 in0.0 mm 0.00 in0.0 mm
10:00 PM 67.8°F19.9°C 63.2°F17.3°C 85% 4.5 mph N7.2 kmh N 6.9 mph11.1 kmh 29.96 in1014.6 mb 0.39 in9.9 mm 0.47 in11.9 mm 0.39 in9.9 mm
10:05 PM 66.7°F19.3°C 63.1°F17.3°C 88% Calm Calm 5.4 mph8.7 kmh 29.96 in1014.6 mb 0.52 in13.2 mm 1.56 in39.6 mm 0.13 in3.3 mm
10:10 PM 66.7°F19.3°C 63.1°F17.3°C 88% Calm Calm 1.6 mph2.6 kmh 29.96 in1014.6 mb 0.52 in13.2 mm 0.00 in0.0 mm 0.13 in3.3 mm
10:15 PM 66.7°F19.3°C 63.1°F17.3°C 88% Calm Calm 1.6 mph2.6 kmh 29.96 in1014.6 mb 0.13 in3.3 mm 0.00 in0.0 mm 0.13 in3.3 mm
10:20 PM 66.7°F19.3°C 63.1°F17.3°C 88% Calm Calm 1.6 mph2.6 kmh 29.97 in1014.9 mb 0.13 in3.3 mm 0.00 in0.0 mm 0.13 in3.3 mm
10:25 PM 66.7°F19.3°C 63.1°F17.3°C 88% Calm Calm 1.6 mph2.6 kmh 29.97 in1014.9 mb 0.13 in3.3 mm 0.00 in0.0 mm 0.13 in3.3 mm
10:30 PM 66.7°F19.3°C 63.1°F17.3°C 88% Calm Calm 1.6 mph2.6 kmh 29.98 in1015.2 mb 0.13 in3.3 mm 0.00 in0.0 mm 0.13 in3.3 mm
10:35 PM 66.7°F19.3°C 63.1°F17.3°C 88% Calm Calm 1.6 mph2.6 kmh 29.97 in1014.9 mb 0.13 in3.3 mm 0.00 in0.0 mm 0.13 in3.3 mm
10:40 PM 66.7°F19.3°C 63.1°F17.3°C 88% Calm Calm 1.6 mph2.6 kmh 29.97 in1014.9 mb 0.13 in3.3 mm 0.00 in0.0 mm 0.13 in3.3 mm
10:45 PM 66.7°F19.3°C 63.1°F17.3°C 88% Calm Calm 1.6 mph2.6 kmh 29.97 in1014.9 mb 0.13 in3.3 mm 0.00 in0.0 mm 0.13 in3.3 mm
10:50 PM 66.2°F19.0°C 64.4°F18.0°C 94% 1.6 mph SE2.6 kmh SE 3.1 mph5.0 kmh 29.97 in1014.9 mb 0.48 in12.2 mm 4.20 in106.7 mm 0.48 in12.2 mm
10:55 PM 66.2°F19.0°C 64.4°F18.0°C 94% 0.7 mph SSE1.1 kmh SSE 3.1 mph5.0 kmh 29.97 in1014.9 mb 0.48 in12.2 mm 0.00 in0.0 mm 0.48 in12.2 mm
11:00 PM 66.2°F19.0°C 64.4°F18.0°C 94% 1.6 mph SSW2.6 kmh SSW 3.1 mph5.0 kmh 29.97 in1014.9 mb 0.48 in12.2 mm 0.00 in0.0 mm 0.48 in12.2 mm
11:05 PM 66.2°F19.0°C 64.4°F18.0°C 94% 2.2 mph WNW3.5 kmh WNW 3.1 mph5.0 kmh 29.98 in1015.2 mb 0.37 in9.4 mm 0.00 in0.0 mm 0.50 in12.7 mm
11:10 PM 66.0°F18.9°C 64.9°F18.3°C 96% 1.6 mph NW2.6 kmh NW 3.1 mph5.0 kmh 29.98 in1015.2 mb 0.43 in10.9 mm 0.72 in18.3 mm 0.56 in14.2 mm
11:15 PM 65.8°F18.8°C 64.7°F18.2°C 96% 0.7 mph NNW1.1 kmh NNW 3.1 mph5.0 kmh 29.97 in1014.9 mb 0.43 in10.9 mm 0.00 in0.0 mm 0.56 in14.2 mm
11:20 PM 65.5°F18.6°C 64.3°F17.9°C 96% 2.2 mph NNE3.5 kmh NNE 3.1 mph5.0 kmh 29.97 in1014.9 mb 0.43 in10.9 mm 0.00 in0.0 mm 0.56 in14.2 mm
11:25 PM 65.5°F18.6°C 64.3°F17.9°C 96% 4.5 mph ENE7.2 kmh ENE 6.0 mph9.7 kmh 29.96 in1014.6 mb 0.43 in10.9 mm 0.00 in0.0 mm 0.56 in14.2 mm
11:30 PM 65.3°F18.5°C 64.2°F17.9°C 96% 0.7 mph E1.1 kmh E 6.0 mph9.7 kmh 29.96 in1014.6 mb 0.43 in10.9 mm 0.00 in0.0 mm 0.56 in14.2 mm
11:35 PM 65.3°F18.5°C 64.2°F17.9°C 96% Calm Calm 6.0 mph9.7 kmh 29.96 in1014.6 mb 0.43 in10.9 mm 0.00 in0.0 mm 0.56 in14.2 mm
11:40 PM 65.3°F18.5°C 64.2°F17.9°C 96% 1.6 mph E2.6 kmh E 3.1 mph5.0 kmh 29.96 in1014.6 mb 0.43 in10.9 mm 0.00 in0.0 mm 0.56 in14.2 mm
11:45 PM 65.1°F18.4°C 64.0°F17.8°C 96% 0.7 mph E1.1 kmh E 2.2 mph3.5 kmh 29.97 in1014.9 mb 0.43 in10.9 mm 0.00 in0.0 mm 0.56 in14.2 mm
11:50 PM 65.1°F18.4°C 64.0°F17.8°C 96% 0.7 mph E1.1 kmh E 2.2 mph3.5 kmh 29.96 in1014.6 mb 0.07 in1.8 mm 0.00 in0.0 mm 0.56 in14.2 mm
11:55 PM 64.9°F18.3°C 63.8°F17.7°C 96% Calm Calm 1.6 mph2.6 kmh 29.97 in1014.9 mb 0.07 in1.8 mm 0.00 in0.0 mm 0.56 in14.2 mm